Time;durP1;ratioP1;P1;durP2;ratioP2;P2;SDS_P1;SDS_P2;PMS_P1;PMS_P2;Temp;Humidity;BMP_temperature;BMP_pressure;BME280_temperature;BME280_humidity;BME280_pressure;Samples;Min_cycle;Max_cycle;Signal;HPM_P1;HPM_P2
2021/01/13 00:00:57;;;;;;;;;;;;;;;-1.51;100.00;100262.88;5071765;28;20363;-74
2021/01/13 00:03:25;;;;;;;;;;;;;;;-1.46;100.00;100268.22;5105835;28;19977;-74
2021/01/13 00:05:52;;;;;;;;;;;;;;;-1.43;100.00;100267.59;5073403;28;19925;-74
2021/01/13 00:08:18;;;;;;;;;;;;;;;-1.40;100.00;100267.78;5072312;28;19925;-74
2021/01/13 00:10:45;;;;;;;;;;;;;;;-1.24;100.00;100279.16;5073274;28;19932;-74
2021/01/13 00:13:11;;;;;;;;;;;;;;;-1.31;100.00;100276.03;5055274;28;20002;-74
2021/01/13 00:15:37;;;;;;;;;;;;;;;-1.22;100.00;100285.94;5073342;28;19929;-74
2021/01/13 00:18:04;;;;;;;;;;;;;;;-1.29;100.00;100269.13;5076919;28;19925;-74
2021/01/13 00:20:30;;;;;;;;;;;;;;;-1.27;100.00;100271.56;5075876;28;19924;-74
2021/01/13 00:22:59;;;;;;;;;;;;;;;-1.28;100.00;100272.66;5075754;28;20014;-74
2021/01/13 00:25:26;;;;;;;;;;;;;;;-1.25;100.00;100263.81;5075579;28;20421;-74
2021/01/13 00:27:53;;;;;;;;;;;;;;;-1.26;100.00;100263.00;5076763;28;20034;-74
2021/01/13 00:30:19;;;;;;;;;;;;;;;-1.24;100.00;100248.97;5075299;28;19925;-74
2021/01/13 00:32:46;;;;;;;;;;;;;;;-1.18;100.00;100253.19;5059102;28;19930;-74
2021/01/13 00:35:13;;;;;;;;;;;;;;;-1.23;100.00;100256.06;5075043;28;20379;-74
2021/01/13 00:37:39;;;;;;;;;;;;;;;-1.17;100.00;100249.31;5076256;28;19932;-74
2021/01/13 00:40:07;;;;;;;;;;;;;;;-1.11;100.00;100259.03;5075956;28;20387;-74
2021/01/13 00:42:41;;;;;;;;;;;;;;;-1.11;100.00;100254.34;5076144;28;19931;-74
2021/01/13 00:45:08;;;;;;;;;;;;;;;-1.36;100.00;100235.84;5076039;28;19936;-74
2021/01/13 00:47:36;;;;;;;;;;;;;;;-1.37;100.00;100231.50;5074843;28;20011;-74
2021/01/13 00:50:03;;;;;;;;;;;;;;;-1.39;100.00;100224.72;5075784;28;19925;-73
2021/01/13 00:52:30;;;;;;;;;;;;;;;-1.51;100.00;100221.75;5075965;28;19924;-74
2021/01/13 00:54:56;;;;;;;;;;;;;;;-1.65;100.00;100210.91;5075070;28;19924;-74
2021/01/13 00:57:23;;;;;;;;;;;;;;;-1.64;100.00;100207.06;5076175;28;19924;-74
2021/01/13 00:59:50;;;;;;;;;;;;;;;-1.64;100.00;100196.09;5076458;28;19931;-74
2021/01/13 01:02:16;;;;;;;;;;;;;;;-1.64;100.00;100192.53;5076529;28;19964;-74
2021/01/13 01:04:43;;;;;;;;;;;;;;;-1.58;100.00;100194.00;5075206;28;19924;-74
2021/01/13 01:07:09;;;;;;;;;;;;;;;-1.52;100.00;100200.97;5076497;28;19924;-74
2021/01/13 01:09:36;;;;;;;;;;;;;;;-1.49;100.00;100201.16;5076209;28;19932;-73
2021/01/13 01:12:03;;;;;;;;;;;;;;;-1.52;100.00;100209.19;5075649;28;19931;-74
2021/01/13 01:14:30;;;;;;;;;;;;;;;-1.52;100.00;100210.00;5076103;28;19931;-74
2021/01/13 01:16:56;;;;;;;;;;;;;;;-1.52;100.00;100204.50;5076030;28;20359;-74
2021/01/13 01:19:22;;;;;;;;;;;;;;;-1.46;100.00;100196.94;5074796;28;19931;-74
2021/01/13 01:21:49;;;;;;;;;;;;;;;-1.31;100.00;100196.50;5074721;28;19925;-74
2021/01/13 01:24:15;;;;;;;;;;;;;;;-1.20;100.00;100200.59;5074792;28;19932;-74
2021/01/13 01:26:45;;;;;;;;;;;;;;;-1.12;100.00;100208.03;5075424;28;20370;-75
2021/01/13 01:29:12;;;;;;;;;;;;;;;-1.04;100.00;100215.47;5075804;28;19924;-74
2021/01/13 01:31:39;;;;;;;;;;;;;;;-1.05;100.00;100211.09;5075783;28;20265;-74
2021/01/13 01:34:06;;;;;;;;;;;;;;;-1.19;100.00;100213.16;5075695;28;19932;-74
2021/01/13 01:36:33;;;;;;;;;;;;;;;-1.23;100.00;100210.28;5075780;28;19924;-74
2021/01/13 01:39:00;;;;;;;;;;;;;;;-1.19;100.00;100218.66;5074312;28;20344;-74
2021/01/13 01:41:26;;;;;;;;;;;;;;;-1.09;100.00;100229.34;5075284;28;19932;-74
2021/01/13 01:43:52;;;;;;;;;;;;;;;-1.11;100.00;100202.22;5075586;28;19934;-74
2021/01/13 01:46:19;;;;;;;;;;;;;;;-0.90;100.00;100210.66;5075547;28;19932;-74
2021/01/13 01:48:53;;;;;;;;;;;;;;;-0.74;100.00;100222.78;5074173;28;20379;-74
2021/01/13 01:51:32;;;;;;;;;;;;;;;-0.61;100.00;100227.31;5074097;28;19932;-74
2021/01/13 01:54:04;;;;;;;;;;;;;;;-0.71;100.00;100225.69;5075190;28;19954;-74
2021/01/13 01:56:38;;;;;;;;;;;;;;;-0.77;100.00;100215.19;5075000;28;20035;-74
2021/01/13 01:59:06;;;;;;;;;;;;;;;-0.87;100.00;100215.50;5074006;28;19924;-74
2021/01/13 02:01:34;;;;;;;;;;;;;;;-0.87;100.00;100210.84;5073978;28;20464;-74
2021/01/13 02:04:05;;;;;;;;;;;;;;;-0.88;100.00;100205.66;5075007;28;19924;-74
2021/01/13 02:06:33;;;;;;;;;;;;;;;-0.78;100.00;100213.56;5074997;28;19932;-74
2021/01/13 02:08:59;;;;;;;;;;;;;;;-0.89;100.00;100201.28;5074748;28;19924;-74
2021/01/13 02:11:27;;;;;;;;;;;;;;;-0.84;100.00;100203.88;5056832;28;19924;-74
2021/01/13 02:13:53;;;;;;;;;;;;;;;-0.78;100.00;100200.66;5056829;28;19924;-74
2021/01/13 02:16:20;;;;;;;;;;;;;;;-0.74;100.00;100203.56;5075077;28;19928;-74
2021/01/13 02:18:48;;;;;;;;;;;;;;;-0.66;100.00;100211.81;5056999;28;19960;-74
2021/01/13 02:21:15;;;;;;;;;;;;;;;-0.63;100.00;100202.13;5074676;28;19931;-73
2021/01/13 02:23:45;;;;;;;;;;;;;;;-0.68;100.00;100202.31;5074580;28;20379;-74
2021/01/13 02:26:30;;;;;;;;;;;;;;;-0.60;100.00;100194.06;5074303;28;19924;-74
2021/01/13 02:29:08;;;;;;;;;;;;;;;-0.61;100.00;100197.94;5074561;28;20345;-74
2021/01/13 02:31:38;;;;;;;;;;;;;;;-0.60;100.00;100193.25;5073516;28;19963;-74
2021/01/13 02:34:23;;;;;;;;;;;;;;;-0.62;100.00;100195.53;5074369;28;19977;-74
2021/01/13 02:37:08;;;;;;;;;;;;;;;-0.56;100.00;100191.47;5074501;28;20284;-73
2021/01/13 02:39:36;;;;;;;;;;;;;;;-0.52;100.00;100193.25;5072379;28;19932;-74
2021/01/13 02:42:03;;;;;;;;;;;;;;;-0.47;100.00;100190.34;5072993;28;19928;-74
2021/01/13 02:44:30;;;;;;;;;;;;;;;-0.55;100.00;100182.09;5073230;28;19925;-74
2021/01/13 02:46:56;;;;;;;;;;;;;;;-0.55;100.00;100190.34;5074211;28;19924;-74
2021/01/13 02:49:28;;;;;;;;;;;;;;;-0.51;100.00;100185.81;5074081;28;19924;-74
2021/01/13 02:51:56;;;;;;;;;;;;;;;-0.62;100.00;100179.84;5072975;28;19924;-74
2021/01/13 02:54:32;;;;;;;;;;;;;;;-0.71;100.00;100170.78;5073686;28;19924;-74
2021/01/13 02:57:07;;;;;;;;;;;;;;;-0.72;100.00;100157.41;5074222;28;19928;-74
2021/01/13 02:59:37;;;;;;;;;;;;;;;-0.76;100.00;100143.50;5074150;28;19964;-74
2021/01/13 03:02:07;;;;;;;;;;;;;;;-0.72;100.00;100149.16;5074094;28;20302;-74
2021/01/13 03:04:34;;;;;;;;;;;;;;;-0.70;100.00;100138.69;5074019;28;20283;-74
2021/01/13 03:07:04;;;;;;;;;;;;;;;-0.62;100.00;100135.91;5073952;28;19924;-74
2021/01/13 03:09:32;;;;;;;;;;;;;;;-0.60;100.00;100132.84;5073777;28;20527;-74
2021/01/13 03:11:59;;;;;;;;;;;;;;;-0.63;100.00;100139.81;5073621;28;19925;-74
2021/01/13 03:14:26;;;;;;;;;;;;;;;-0.66;100.00;100139.63;5072648;28;19925;-74
2021/01/13 03:17:02;;;;;;;;;;;;;;;-0.67;100.00;100135.28;5074013;28;19936;-74
2021/01/13 03:19:45;;;;;;;;;;;;;;;-0.71;100.00;100134.31;5073769;28;19932;-74
2021/01/13 03:22:17;;;;;;;;;;;;;;;-0.72;100.00;100130.75;5067936;28;20371;-74
2021/01/13 03:24:56;;;;;;;;;;;;;;;-0.64;100.00;100131.88;5072523;28;19924;-74
2021/01/13 03:27:23;;;;;;;;;;;;;;;-0.45;100.00;100133.16;5055775;28;20257;-74
2021/01/13 03:29:51;;;;;;;;;;;;;;;-0.37;100.00;100143.34;5106482;28;19931;-74
2021/01/13 03:32:21;;;;;;;;;;;;;;;-0.40;100.00;100143.97;5072432;28;19931;-74
2021/01/13 03:35:01;;;;;;;;;;;;;;;-0.29;100.00;100149.94;5073592;28;19989;-74
2021/01/13 03:37:32;;;;;;;;;;;;;;;-0.25;100.00;100146.22;5072254;28;19933;-74
2021/01/13 03:39:58;;;;;;;;;;;;;;;-0.17;100.00;100152.81;5073500;28;19982;-74
2021/01/13 03:42:26;;;;;;;;;;;;;;;-0.05;100.00;100150.22;5073510;28;19932;-74
2021/01/13 03:44:55;;;;;;;;;;;;;;;0.02;100.00;100155.22;5073569;28;19928;-75
2021/01/13 03:47:43;;;;;;;;;;;;;;;-0.10;100.00;100144.88;5073543;28;19931;-74
2021/01/13 03:50:20;;;;;;;;;;;;;;;0.01;100.00;100146.16;5076238;28;20343;-74
2021/01/13 03:53:00;;;;;;;;;;;;;;;-0.03;100.00;100147.91;5077441;28;20306;-74
2021/01/13 03:55:31;;;;;;;;;;;;;;;-0.01;100.00;100134.66;5076249;28;20378;-74
2021/01/13 03:57:58;;;;;;;;;;;;;;;-0.06;100.00;100138.41;5076214;28;19929;-74
2021/01/13 04:00:27;;;;;;;;;;;;;;;-0.02;100.00;100135.81;5075973;28;20279;-74
2021/01/13 04:03:13;;;;;;;;;;;;;;;0.13;100.00;100143.53;5076246;28;20347;-74
2021/01/13 04:05:55;;;;;;;;;;;;;;;0.08;100.00;100149.19;5109664;28;19924;-74
2021/01/13 04:08:23;;;;;;;;;;;;;;;0.07;100.00;100142.09;5077133;28;19931;-74
2021/01/13 04:10:49;;;;;;;;;;;;;;;0.01;100.00;100137.91;5076994;28;19954;-74
2021/01/13 04:13:24;;;;;;;;;;;;;;;-0.02;100.00;100133.84;5076816;28;19924;-74
2021/01/13 04:15:51;;;;;;;;;;;;;;;-0.33;100.00;100129.75;5076962;28;20010;-74
2021/01/13 04:18:18;;;;;;;;;;;;;;;-0.45;100.00;100121.34;5077042;28;19979;-74
2021/01/13 04:20:45;;;;;;;;;;;;;;;-0.21;100.00;100135.38;5075282;28;19947;-74
2021/01/13 04:23:11;;;;;;;;;;;;;;;-0.34;100.00;100128.13;5075707;28;19956;-74
2021/01/13 04:25:38;;;;;;;;;;;;;;;-0.35;100.00;100124.56;5075609;28;19928;-74
2021/01/13 04:28:04;;;;;;;;;;;;;;;-0.24;100.00;100120.34;5075521;28;19925;-74
2021/01/13 04:30:31;;;;;;;;;;;;;;;-0.26;100.00;100122.59;5075562;28;20472;-74
2021/01/13 04:32:57;;;;;;;;;;;;;;;-0.13;100.00;100131.78;5076629;28;19928;-74
2021/01/13 04:35:24;;;;;;;;;;;;;;;0.05;100.00;100133.34;5076242;28;19931;-74
2021/01/13 04:37:55;;;;;;;;;;;;;;;0.06;100.00;100139.66;5076670;28;19924;-74
2021/01/13 04:40:40;;;;;;;;;;;;;;;0.10;100.00;100140.63;5109128;28;19925;-74
2021/01/13 04:43:07;;;;;;;;;;;;;;;0.21;100.00;100148.19;5075472;28;19924;-74
2021/01/13 04:45:40;;;;;;;;;;;;;;;0.24;100.00;100142.03;5058707;28;19947;-74
2021/01/13 04:48:08;;;;;;;;;;;;;;;0.29;100.00;100147.34;5076410;28;19925;-74
2021/01/13 04:50:36;;;;;;;;;;;;;;;0.36;100.00;100141.31;5076082;28;19931;-74
2021/01/13 04:53:13;;;;;;;;;;;;;;;0.40;100.00;100134.84;5076291;28;19924;-74
2021/01/13 04:55:49;;;;;;;;;;;;;;;0.48;100.00;100135.94;5076194;28;20371;-74
2021/01/13 04:58:28;;;;;;;;;;;;;;;0.54;100.00;100145.59;5076199;28;20387;-73
2021/01/13 05:01:10;;;;;;;;;;;;;;;0.34;100.00;100136.16;5074509;28;19924;-73
2021/01/13 05:03:39;;;;;;;;;;;;;;;0.12;100.00;100122.69;5076055;28;19924;-73
2021/01/13 05:06:25;;;;;;;;;;;;;;;0.17;100.00;100125.22;5075981;28;19993;-73
2021/01/13 05:09:11;;;;;;;;;;;;;;;0.20;100.00;100121.03;5076009;28;19935;-73
2021/01/13 05:11:39;;;;;;;;;;;;;;;-0.02;100.00;100116.59;5075972;28;20272;-73
2021/01/13 05:14:06;;;;;;;;;;;;;;;-0.03;100.00;100117.69;5075937;28;19929;-73
2021/01/13 05:16:50;;;;;;;;;;;;;;;0.05;100.00;100119.63;5074812;28;19924;-73
2021/01/13 05:19:29;;;;;;;;;;;;;;;0.15;100.00;100122.03;5075606;28;19947;-73
2021/01/13 05:22:00;;;;;;;;;;;;;;;0.23;100.00;100123.13;5075762;28;19932;-73
2021/01/13 05:24:50;;;;;;;;;;;;;;;0.21;100.00;100115.22;5075726;28;19924;-73
2021/01/13 05:27:45;;;;;;;;;;;;;;;0.19;100.00;100111.16;5033095;28;19925;-73
2021/01/13 05:30:33;;;;;;;;;;;;;;;0.10;100.00;100113.94;5016629;28;19925;-73
2021/01/13 05:36:11;;;;;;;;;;;;;;;0.11;100.00;100107.31;5033384;28;19929;-73
2021/01/13 05:38:38;;;;;;;;;;;;;;;0.11;100.00;100092.78;5033294;28;19929;-73
2021/01/13 05:41:13;;;;;;;;;;;;;;;0.19;100.00;100100.97;5033064;28;19936;-73
2021/01/13 05:44:21;;;;;;;;;;;;;;;0.33;100.00;100106.25;4954213;29;19933;-74
2021/01/13 05:47:19;;;;;;;;;;;;;;;0.37;100.00;100102.50;4915059;29;20022;-74
2021/01/13 05:49:46;;;;;;;;;;;;;;;0.37;100.00;100109.94;4915585;29;20343;-73
2021/01/13 05:52:16;;;;;;;;;;;;;;;0.25;100.00;100102.41;4924554;28;19934;-73
2021/01/13 05:54:43;;;;;;;;;;;;;;;0.22;100.00;100103.06;4964101;28;19926;-73
2021/01/13 05:57:09;;;;;;;;;;;;;;;0.18;100.00;100093.88;5057265;28;19956;-73
2021/01/13 05:59:36;;;;;;;;;;;;;;;0.15;100.00;100102.78;5057147;28;19925;-73
2021/01/13 06:02:03;;;;;;;;;;;;;;;0.11;100.00;100090.81;5074719;28;19934;-73
2021/01/13 06:04:30;;;;;;;;;;;;;;;0.06;100.00;100080.03;5073692;28;19931;-73
2021/01/13 06:06:57;;;;;;;;;;;;;;;0.10;100.00;100094.72;5074960;28;19970;-73
2021/01/13 06:09:23;;;;;;;;;;;;;;;0.08;100.00;100088.72;5073721;28;20024;-73
2021/01/13 06:11:54;;;;;;;;;;;;;;;0.09;100.00;100084.88;5074949;28;19924;-73
2021/01/13 06:14:25;;;;;;;;;;;;;;;0.07;100.00;100092.63;5074106;28;19924;-73
2021/01/13 06:16:52;;;;;;;;;;;;;;;0.11;100.00;100095.53;5074529;28;19947;-73
2021/01/13 06:19:19;;;;;;;;;;;;;;;0.14;100.00;100097.63;5074743;28;20399;-73
2021/01/13 06:22:05;;;;;;;;;;;;;;;0.16;100.00;100100.81;5074908;28;19932;-73
2021/01/13 06:24:33;;;;;;;;;;;;;;;0.10;100.00;100102.97;5074659;28;19928;-73
2021/01/13 06:27:19;;;;;;;;;;;;;;;0.15;100.00;100104.72;5056826;28;19936;-73
2021/01/13 06:29:49;;;;;;;;;;;;;;;0.26;100.00;100123.25;5074694;28;19947;-73
2021/01/13 06:32:38;;;;;;;;;;;;;;;0.35;100.00;100114.97;5073155;28;19931;-73
2021/01/13 06:35:23;;;;;;;;;;;;;;;0.40;100.00;100112.03;5074159;28;19924;-73
2021/01/13 06:37:51;;;;;;;;;;;;;;;0.45;100.00;100114.59;5056545;28;19932;-73
2021/01/13 06:40:19;;;;;;;;;;;;;;;0.45;100.00;100120.91;5074266;28;20367;-73
2021/01/13 06:42:45;;;;;;;;;;;;;;;0.53;100.00;100127.50;5074360;28;19925;-73
2021/01/13 06:45:13;;;;;;;;;;;;;;;0.60;100.00;100130.53;5074056;28;20338;-73
2021/01/13 06:47:52;;;;;;;;;;;;;;;0.69;100.00;100132.09;5074521;28;20020;-73
2021/01/13 06:50:35;;;;;;;;;;;;;;;0.76;100.00;100137.09;5074256;28;20027;-73
2021/01/13 06:53:05;;;;;;;;;;;;;;;0.81;100.00;100139.63;5056322;28;19925;-73
2021/01/13 06:55:32;;;;;;;;;;;;;;;0.81;100.00;100140.44;5072872;28;19924;-73
2021/01/13 06:58:07;;;;;;;;;;;;;;;0.87;100.00;100138.28;5066337;28;19928;-73
2021/01/13 07:00:34;;;;;;;;;;;;;;;0.87;100.00;100133.59;5069543;28;19929;-74
2021/01/13 07:03:25;;;;;;;;;;;;;;;0.93;100.00;100136.94;5069440;28;19924;-74
2021/01/13 07:05:52;;;;;;;;;;;;;;;0.95;100.00;100137.44;5069544;28;19960;-74
2021/01/13 07:08:20;;;;;;;;;;;;;;;0.91;100.00;100131.78;5069757;28;19925;-74
2021/01/13 07:10:47;;;;;;;;;;;;;;;0.94;100.00;100133.88;5052971;28;20171;-74
2021/01/13 07:13:17;;;;;;;;;;;;;;;0.95;100.00;100137.44;5069412;28;19925;-74
2021/01/13 07:15:45;;;;;;;;;;;;;;;0.95;100.00;100130.00;5069383;28;19924;-76
2021/01/13 07:18:12;;;;;;;;;;;;;;;0.97;100.00;100138.69;5070394;28;20383;-76
2021/01/13 07:20:41;;;;;;;;;;;;;;;0.96;100.00;100131.59;5070007;28;19959;-76
2021/01/13 07:23:08;;;;;;;;;;;;;;;1.02;100.00;100141.25;5068227;28;19955;-76
2021/01/13 07:25:45;;;;;;;;;;;;;;;1.05;100.00;100150.78;5067648;28;19940;-75
2021/01/13 07:28:15;;;;;;;;;;;;;;;0.93;100.00;100136.94;5067969;28;19935;-73
2021/01/13 07:30:43;;;;;;;;;;;;;;;0.91;100.00;100136.50;5072356;28;19936;-73
2021/01/13 07:33:11;;;;;;;;;;;;;;;0.77;100.00;100134.00;5068368;28;19932;-74
2021/01/13 07:35:46;;;;;;;;;;;;;;;0.73;100.00;100127.53;5085364;28;19928;-73
2021/01/13 07:38:16;;;;;;;;;;;;;;;0.79;100.00;100136.41;5078940;28;19958;-73
2021/01/13 07:40:56;;;;;;;;;;;;;;;0.74;100.00;100129.16;5088587;28;19931;-74
2021/01/13 07:43:32;;;;;;;;;;;;;;;0.81;100.00;100140.44;5072770;28;19932;-73
2021/01/13 07:46:03;;;;;;;;;;;;;;;0.71;100.00;100129.78;5072843;28;19929;-73
2021/01/13 07:48:29;;;;;;;;;;;;;;;0.62;100.00;100129.03;5106305;28;19967;-73
2021/01/13 07:51:07;;;;;;;;;;;;;;;0.57;100.00;100121.00;5055640;28;19928;-73
2021/01/13 07:53:38;;;;;;;;;;;;;;;0.45;100.00;100115.41;5072371;28;19959;-73
2021/01/13 07:56:05;;;;;;;;;;;;;;;0.52;100.00;100120.38;5073577;28;20019;-73
2021/01/13 07:58:33;;;;;;;;;;;;;;;0.57;100.00;100123.75;5071951;28;19924;-73
2021/01/13 08:01:09;;;;;;;;;;;;;;;0.65;100.00;100131.13;5073579;28;19932;-73
2021/01/13 08:03:52;;;;;;;;;;;;;;;0.65;100.00;100125.63;5072380;28;19924;-73
2021/01/13 08:06:26;;;;;;;;;;;;;;;0.69;100.00;100131.28;5072439;28;20027;-73
2021/01/13 08:09:12;;;;;;;;;;;;;;;0.65;100.00;100125.63;5071471;28;20267;-74
2021/01/13 08:11:59;;;;;;;;;;;;;;;0.74;100.00;100134.66;5072199;28;19936;-75
2021/01/13 08:14:31;;;;;;;;;;;;;;;0.87;100.00;100133.59;5051197;28;19924;-73
2021/01/13 08:17:18;;;;;;;;;;;;;;;0.90;100.00;100132.94;5072152;28;19925;-73
2021/01/13 08:20:07;;;;;;;;;;;;;;;0.92;100.00;100136.16;5072148;28;20371;-73
2021/01/13 08:22:34;;;;;;;;;;;;;;;0.89;100.00;100141.53;5089010;28;20019;-73
2021/01/13 08:25:11;;;;;;;;;;;;;;;0.84;100.00;100134.28;5073211;28;19924;-73
2021/01/13 08:27:38;;;;;;;;;;;;;;;0.72;100.00;100119.59;5073000;28;19928;-73
2021/01/13 08:30:05;;;;;;;;;;;;;;;0.77;100.00;100131.25;5072000;28;19978;-73
2021/01/13 08:32:40;;;;;;;;;;;;;;;0.79;100.00;100128.94;5071933;28;19925;-73
2021/01/13 08:35:08;;;;;;;;;;;;;;;0.87;100.00;100136.34;5073288;28;19970;-73
2021/01/13 08:37:35;;;;;;;;;;;;;;;0.92;100.00;100140.84;5074916;28;19924;-73
2021/01/13 08:40:20;;;;;;;;;;;;;;;0.95;100.00;100137.44;5076642;28;20294;-74
2021/01/13 08:42:46;;;;;;;;;;;;;;;1.01;100.00;100138.84;5076335;28;20280;-73
2021/01/13 08:45:33;;;;;;;;;;;;;;;1.08;100.00;100145.44;5076591;28;20288;-73
2021/01/13 08:48:06;;;;;;;;;;;;;;;1.09;100.00;100149.78;5076453;28;19978;-73
2021/01/13 08:50:33;;;;;;;;;;;;;;;1.12;100.00;100151.09;5075278;28;19925;-73
2021/01/13 08:53:01;;;;;;;;;;;;;;;1.12;100.00;100140.84;5058442;28;19971;-72
2021/01/13 08:55:28;;;;;;;;;;;;;;;1.16;100.00;100141.81;5074891;28;19924;-74
2021/01/13 08:58:02;;;;;;;;;;;;;;;1.17;100.00;100143.41;5074829;28;19924;-73
2021/01/13 09:00:31;;;;;;;;;;;;;;;1.19;100.00;100141.16;5075057;28;19924;-72
2021/01/13 09:03:00;;;;;;;;;;;;;;;1.20;100.00;100137.25;5076085;28;19948;-72
2021/01/13 09:05:28;;;;;;;;;;;;;;;1.27;100.00;100144.97;5076166;28;19931;-72
2021/01/13 09:07:55;;;;;;;;;;;;;;;1.34;100.00;100142.47;5076186;28;19931;-73
2021/01/13 09:10:22;;;;;;;;;;;;;;;1.35;100.00;100144.88;5075717;28;19947;-75
2021/01/13 09:12:48;;;;;;;;;;;;;;;1.31;100.00;100141.22;5074559;28;19928;-73
2021/01/13 09:15:16;;;;;;;;;;;;;;;1.32;100.00;100139.25;5075726;28;19925;-73
2021/01/13 09:17:48;;;;;;;;;;;;;;;1.33;100.00;100136.16;5074456;28;19932;-73
2021/01/13 09:20:14;;;;;;;;;;;;;;;1.37;100.00;100142.63;5075836;28;20299;-72
2021/01/13 09:22:41;;;;;;;;;;;;;;;1.44;100.00;100144.81;5075809;28;19925;-72
2021/01/13 09:25:16;;;;;;;;;;;;;;;1.53;100.00;100151.84;5075337;28;19946;-72
2021/01/13 09:27:52;;;;;;;;;;;;;;;1.60;100.00;100148.56;5075089;28;19924;-73
2021/01/13 09:30:24;;;;;;;;;;;;;;;1.57;100.00;100147.31;5075493;28;20372;-73
2021/01/13 09:32:52;;;;;;;;;;;;;;;1.63;100.00;100148.72;5074396;28;20299;-73
2021/01/13 09:35:29;;;;;;;;;;;;;;;1.75;100.00;100154.25;5074973;28;19935;-72
2021/01/13 09:37:58;;;;;;;;;;;;;;;1.86;100.00;100155.44;5073629;28;20329;-72
2021/01/13 09:40:44;;;;;;;;;;;;;;;1.89;100.00;100163.00;5061364;28;20319;-73
2021/01/13 09:43:29;;;;;;;;;;;;;;;1.96;100.00;100165.22;5068880;28;19924;-73
2021/01/13 09:45:58;;;;;;;;;;;;;;;2.05;100.00;100162.38;5070687;28;20387;-73
2021/01/13 09:48:25;;;;;;;;;;;;;;;2.10;100.00;100170.44;5069963;28;19931;-73
2021/01/13 09:51:03;;;;;;;;;;;;;;;2.05;100.00;100165.94;5070190;28;20419;-72
2021/01/13 09:53:31;;;;;;;;;;;;;;;1.98;100.00;100156.63;5071503;28;19924;-72
2021/01/13 09:56:01;;;;;;;;;;;;;;;1.86;100.00;100166.44;5070549;28;19928;-73
2021/01/13 09:58:34;;;;;;;;;;;;;;;1.86;100.00;100160.94;5070580;28;19924;-72
2021/01/13 10:01:06;;;;;;;;;;;;;;;1.75;100.00;100150.69;5071409;28;20436;-72
2021/01/13 10:03:32;;;;;;;;;;;;;;;1.77;100.00;100149.19;5073464;28;19924;-73
2021/01/13 10:05:59;;;;;;;;;;;;;;;1.70;100.00;100145.38;5068591;28;20407;-73
2021/01/13 10:08:30;;;;;;;;;;;;;;;1.60;100.00;100140.31;5070369;28;20415;-72
2021/01/13 10:10:57;;;;;;;;;;;;;;;1.57;100.00;100144.56;5070338;28;19931;-74
2021/01/13 10:13:25;;;;;;;;;;;;;;;1.60;100.00;100146.63;5070349;28;19924;-73
2021/01/13 10:15:58;;;;;;;;;;;;;;;1.65;100.00;100146.41;5071130;28;19936;-74
2021/01/13 10:18:26;;;;;;;;;;;;;;;1.65;100.00;100146.41;5069527;28;20728;-73
2021/01/13 10:21:10;;;;;;;;;;;;;;;1.70;100.00;100154.47;5070093;28;20429;-73
2021/01/13 10:23:39;;;;;;;;;;;;;;;1.80;100.00;100161.50;5085993;28;19928;-73
2021/01/13 10:26:07;;;;;;;;;;;;;;;1.88;100.00;100173.59;5069007;28;19925;-73
2021/01/13 10:28:34;;;;;;;;;;;;;;;1.97;100.00;100171.56;5070340;28;19924;-73
2021/01/13 10:31:01;;;;;;;;;;;;;;;1.96;100.00;100169.91;5068743;28;19924;-73
2021/01/13 10:33:49;;;;;;;;;;;;;;;1.94;100.00;100175.00;5069859;28;20370;-73
2021/01/13 10:36:35;;;;;;;;;;;;;;;2.00;100.00;100181.91;5068483;28;19935;-74
2021/01/13 10:39:10;;;;;;;;;;;;;;;2.11;100.00;100194.09;5070368;28;19924;-74
2021/01/13 10:41:36;;;;;;;;;;;;;;;2.05;100.00;100184.44;5070313;28;19943;-72
2021/01/13 10:44:07;;;;;;;;;;;;;;;2.12;100.00;100190.22;5067726;28;19932;-72
2021/01/13 10:46:44;;;;;;;;;;;;;;;2.05;100.00;100185.25;5074814;28;19925;-73
2021/01/13 10:49:18;;;;;;;;;;;;;;;2.05;100.00;100176.16;5069617;28;19931;-74
2021/01/13 10:51:46;;;;;;;;;;;;;;;2.09;100.00;100177.09;5069605;28;19973;-73
2021/01/13 10:54:15;;;;;;;;;;;;;;;2.15;100.00;100178.50;5068936;28;19924;-73
2021/01/13 10:56:45;;;;;;;;;;;;;;;2.17;100.00;100176.19;5068269;28;19959;-73
2021/01/13 10:59:14;;;;;;;;;;;;;;;2.21;100.00;100174.38;5068995;28;20326;-72
2021/01/13 11:01:44;;;;;;;;;;;;;;;2.17;100.00;100171.47;5069845;28;20006;-73
2021/01/13 11:04:25;;;;;;;;;;;;;;;2.22;100.00;100170.47;5072844;28;19970;-76
2021/01/13 11:06:56;;;;;;;;;;;;;;;2.31;100.00;100171.16;5071569;28;20382;-75
2021/01/13 11:09:23;;;;;;;;;;;;;;;2.36;100.00;100168.19;5073719;28;19931;-76
2021/01/13 11:11:50;;;;;;;;;;;;;;;2.37;100.00;100167.03;5074121;28;20029;-75
2021/01/13 11:14:30;;;;;;;;;;;;;;;2.39;100.00;100164.75;5073548;28;20402;-75
2021/01/13 11:17:00;;;;;;;;;;;;;;;2.46;100.00;100159.47;5073821;28;19947;-77
2021/01/13 11:19:27;;;;;;;;;;;;;;;2.46;100.00;100165.78;5073700;28;20362;-77
2021/01/13 11:21:55;;;;;;;;;;;;;;;2.54;100.00;100164.06;5073689;28;20387;-79
2021/01/13 11:24:27;;;;;;;;;;;;;;;2.62;100.00;100169.47;5072471;28;19924;-80
2021/01/13 11:26:55;;;;;;;;;;;;;;;2.70;100.00;100173.25;5072479;28;20520;-77
2021/01/13 11:29:22;;;;;;;;;;;;;;;2.81;100.00;100180.75;5073988;28;19931;-77
2021/01/13 11:31:49;;;;;;;;;;;;;;;2.83;100.00;100181.19;5055921;28;19940;-75
2021/01/13 11:34:19;;;;;;;;;;;;;;;2.86;100.00;100182.47;5073636;28;19924;-74
2021/01/13 11:36:52;;;;;;;;;;;;;;;2.93;100.00;100182.69;5073446;28;19925;-75
2021/01/13 11:39:23;;;;;;;;;;;;;;;3.01;100.00;100181.78;5073592;28;19939;-74
2021/01/13 11:42:03;;;;;;;;;;;;;;;3.02;100.00;100184.19;5073583;28;19925;-76
2021/01/13 11:44:39;;;;;;;;;;;;;;;3.09;100.00;100176.13;5073581;28;19951;-75
2021/01/13 11:47:19;;;;;;;;;;;;;;;3.04;100.00;100178.31;5072350;28;20338;-74
2021/01/13 11:49:55;;;;;;;;;;;;;;;2.97;100.00;100167.06;5073138;28;19925;-77
2021/01/13 11:52:26;;;;;;;;;;;;;;;2.95;100.00;100180.41;5073433;28;19932;-75
2021/01/13 11:54:53;;;;;;;;;;;;;;;3.04;100.00;100172.81;5073418;28;19975;-75
2021/01/13 11:57:20;;;;;;;;;;;;;;;3.13;100.00;100173.47;5073356;28;19928;-75
2021/01/13 11:59:47;;;;;;;;;;;;;;;3.22;100.00;100179.69;5073284;28;19924;-75
2021/01/13 12:02:17;;;;;;;;;;;;;;;3.22;100.00;100174.97;5073190;28;19924;-77
2021/01/13 12:04:43;;;;;;;;;;;;;;;3.19;100.00;100163.81;5071226;28;19925;-76
2021/01/13 12:07:10;;;;;;;;;;;;;;;3.25;100.00;100165.16;5054758;28;20404;-76
2021/01/13 12:09:37;;;;;;;;;;;;;;;3.23;100.00;100164.69;5071951;28;19933;-76
2021/01/13 12:12:04;;;;;;;;;;;;;;;3.27;100.00;100162.88;5074166;28;19934;-76
2021/01/13 12:14:41;;;;;;;;;;;;;;;3.33;100.00;100169.75;5109541;28;19925;-77
2021/01/13 12:17:08;;;;;;;;;;;;;;;3.34;100.00;100157.56;5075755;28;20327;-75
2021/01/13 12:19:35;;;;;;;;;;;;;;;3.28;100.00;100150.66;5075870;28;19925;-76
2021/01/13 12:22:03;;;;;;;;;;;;;;;3.19;100.00;100138.94;5074431;28;19932;-77
2021/01/13 12:24:36;;;;;;;;;;;;;;;3.32;100.00;100143.28;5076093;28;20031;-77
2021/01/13 12:27:18;;;;;;;;;;;;;;;3.29;100.00;100135.69;5076373;28;20364;-76
2021/01/13 12:29:44;;;;;;;;;;;;;;;3.31;100.00;100127.84;5075531;28;19925;-75
2021/01/13 12:32:11;;;;;;;;;;;;;;;3.29;100.00;100124.63;5076530;28;19928;-76
2021/01/13 12:34:38;;;;;;;;;;;;;;;3.23;100.00;100131.56;5076415;28;20035;-75
2021/01/13 12:37:05;;;;;;;;;;;;;;;3.29;100.00;100121.88;5076683;28;20508;-76
2021/01/13 12:39:33;;;;;;;;;;;;;;;3.26;100.00;100119.81;5076425;28;19928;-76
2021/01/13 12:42:01;;;;;;;;;;;;;;;3.36;100.00;100125.66;5075317;28;19928;-78
2021/01/13 12:44:29;;;;;;;;;;;;;;;3.48;100.00;100127.59;5076498;28;19924;-75
2021/01/13 12:46:57;;;;;;;;;;;;;;;3.50;100.00;100130.78;5076547;28;19932;-73
2021/01/13 12:49:26;;;;;;;;;;;;;;;3.46;100.00;100118.81;5075788;28;19928;-73
2021/01/13 12:51:53;;;;;;;;;;;;;;;3.48;100.00;100122.06;5075835;28;20380;-73
2021/01/13 12:54:20;;;;;;;;;;;;;;;3.52;100.00;100121.00;5075944;28;19928;-73
2021/01/13 12:56:46;;;;;;;;;;;;;;;3.55;100.00;100116.72;5076387;28;19956;-75